Dipolog, Philippines
Current Conditions -  °F | °C
As of 6:00 PM on Tuesday 21 Oct 2014 (Local Time) from RPVM Reporting Station
Broken Clouds Broken Clouds  
Wind Chill: 84°   Ceiling: 30000
Heat Index: 94°   Visibility: 6mi
Dew Point: 77°   Wind: 0mph
Humidity: 79%   Direction: NA
Pressure: 29.85"   Gusts: NA
Location:  8.59°N, 123.35°E
Report Text: RPVM 211000Z 00000KT 9999 FEW018CB BKN300 29/25 Q1011 RMK A2985 CB W
Loading
Personal Weather Stations






























Interactive Weather Map
Tropical Storm Tracking
New forecast layout! Learn more

10-Day Weather Forecast

Advertisements
Track Severe Weather on mobile